sensor_id;sensor_type;location;lat;lon;timestamp;P1;durP1;ratioP1;P2;durP2;ratioP2
54384;SDS011;40284;52.878;5.998;2023-08-07T00:01:49;17.20;;;4.78;;
54384;SDS011;40284;52.878;5.998;2023-08-07T00:04:15;11.82;;;4.38;;
54384;SDS011;40284;52.878;5.998;2023-08-07T00:06:41;8.07;;;3.78;;
54384;SDS011;40284;52.878;5.998;2023-08-07T00:09:07;10.02;;;4.55;;
54384;SDS011;40284;52.878;5.998;2023-08-07T00:11:33;15.35;;;4.38;;
54384;SDS011;40284;52.878;5.998;2023-08-07T00:13:59;9.38;;;4.80;;
54384;SDS011;40284;52.878;5.998;2023-08-07T00:16:25;9.27;;;4.07;;
54384;SDS011;40284;52.878;5.998;2023-08-07T00:18:52;12.20;;;4.22;;
54384;SDS011;40284;52.878;5.998;2023-08-07T00:21:21;13.43;;;4.65;;
54384;SDS011;40284;52.878;5.998;2023-08-07T00:23:47;9.70;;;4.68;;
54384;SDS011;40284;52.878;5.998;2023-08-07T00:26:14;10.02;;;4.07;;
54384;SDS011;40284;52.878;5.998;2023-08-07T00:28:41;12.63;;;4.70;;
54384;SDS011;40284;52.878;5.998;2023-08-07T00:31:07;9.18;;;3.90;;
54384;SDS011;40284;52.878;5.998;2023-08-07T00:33:33;8.43;;;3.67;;
54384;SDS011;40284;52.878;5.998;2023-08-07T00:35:59;11.82;;;3.83;;
54384;SDS011;40284;52.878;5.998;2023-08-07T00:38:25;10.70;;;3.38;;
54384;SDS011;40284;52.878;5.998;2023-08-07T00:40:51;9.23;;;3.20;;
54384;SDS011;40284;52.878;5.998;2023-08-07T00:43:17;6.38;;;2.90;;
54384;SDS011;40284;52.878;5.998;2023-08-07T00:45:45;7.18;;;3.13;;
54384;SDS011;40284;52.878;5.998;2023-08-07T00:48:11;11.45;;;3.65;;
54384;SDS011;40284;52.878;5.998;2023-08-07T00:50:38;8.88;;;3.17;;
54384;SDS011;40284;52.878;5.998;2023-08-07T00:53:05;6.85;;;3.22;;
54384;SDS011;40284;52.878;5.998;2023-08-07T00:55:31;13.77;;;3.67;;
54384;SDS011;40284;52.878;5.998;2023-08-07T00:57:58;11.20;;;3.38;;
54384;SDS011;40284;52.878;5.998;2023-08-07T01:00:24;16.80;;;4.13;;
54384;SDS011;40284;52.878;5.998;2023-08-07T01:02:51;14.93;;;4.03;;
54384;SDS011;40284;52.878;5.998;2023-08-07T01:05:17;17.77;;;3.15;;
54384;SDS011;40284;52.878;5.998;2023-08-07T01:07:46;12.88;;;3.78;;
54384;SDS011;40284;52.878;5.998;2023-08-07T01:10:12;15.00;;;3.83;;
54384;SDS011;40284;52.878;5.998;2023-08-07T01:13:01;10.82;;;3.00;;
54384;SDS011;40284;52.878;5.998;2023-08-07T01:15:44;12.45;;;3.42;;
54384;SDS011;40284;52.878;5.998;2023-08-07T01:18:12;11.98;;;3.33;;
54384;SDS011;40284;52.878;5.998;2023-08-07T01:20:39;15.45;;;4.25;;
54384;SDS011;40284;52.878;5.998;2023-08-07T01:23:05;10.52;;;2.92;;
54384;SDS011;40284;52.878;5.998;2023-08-07T01:25:31;11.85;;;3.42;;
54384;SDS011;40284;52.878;5.998;2023-08-07T01:30:29;15.40;;;3.08;;
54384;SDS011;40284;52.878;5.998;2023-08-07T01:32:58;13.48;;;2.80;;
54384;SDS011;40284;52.878;5.998;2023-08-07T01:35:26;11.82;;;2.55;;
54384;SDS011;40284;52.878;5.998;2023-08-07T01:37:54;15.15;;;3.45;;
54384;SDS011;40284;52.878;5.998;2023-08-07T01:40:21;13.35;;;3.80;;
54384;SDS011;40284;52.878;5.998;2023-08-07T01:42:47;7.97;;;2.25;;
54384;SDS011;40284;52.878;5.998;2023-08-07T01:45:13;14.02;;;3.08;;
54384;SDS011;40284;52.878;5.998;2023-08-07T01:47:39;11.95;;;2.33;;
54384;SDS011;40284;52.878;5.998;2023-08-07T01:50:06;14.48;;;3.15;;
54384;SDS011;40284;52.878;5.998;2023-08-07T01:52:32;10.20;;;2.65;;
54384;SDS011;40284;52.878;5.998;2023-08-07T01:54:58;15.57;;;2.72;;
54384;SDS011;40284;52.878;5.998;2023-08-07T01:57:24;13.50;;;3.17;;
54384;SDS011;40284;52.878;5.998;2023-08-07T01:59:51;13.40;;;2.95;;
54384;SDS011;40284;52.878;5.998;2023-08-07T02:02:17;22.77;;;3.00;;
54384;SDS011;40284;52.878;5.998;2023-08-07T02:04:43;10.02;;;2.05;;
54384;SDS011;40284;52.878;5.998;2023-08-07T02:07:09;10.82;;;2.70;;
54384;SDS011;40284;52.878;5.998;2023-08-07T02:09:35;10.40;;;2.45;;
54384;SDS011;40284;52.878;5.998;2023-08-07T02:12:02;12.70;;;3.90;;
54384;SDS011;40284;52.878;5.998;2023-08-07T02:14:28;12.55;;;2.63;;
54384;SDS011;40284;52.878;5.998;2023-08-07T02:16:54;9.02;;;2.72;;
54384;SDS011;40284;52.878;5.998;2023-08-07T02:19:20;12.73;;;2.92;;
54384;SDS011;40284;52.878;5.998;2023-08-07T02:21:46;16.33;;;2.85;;
54384;SDS011;40284;52.878;5.998;2023-08-07T02:24:12;17.08;;;3.58;;
54384;SDS011;40284;52.878;5.998;2023-08-07T02:26:38;10.48;;;2.83;;
54384;SDS011;40284;52.878;5.998;2023-08-07T02:29:05;16.05;;;4.03;;
54384;SDS011;40284;52.878;5.998;2023-08-07T02:31:32;16.58;;;3.30;;
54384;SDS011;40284;52.878;5.998;2023-08-07T02:33:58;18.42;;;3.25;;
54384;SDS011;40284;52.878;5.998;2023-08-07T02:36:24;16.67;;;3.17;;
54384;SDS011;40284;52.878;5.998;2023-08-07T02:38:50;18.10;;;4.00;;
54384;SDS011;40284;52.878;5.998;2023-08-07T02:41:16;16.50;;;3.83;;
54384;SDS011;40284;52.878;5.998;2023-08-07T02:43:42;13.48;;;3.20;;
54384;SDS011;40284;52.878;5.998;2023-08-07T02:46:08;14.15;;;4.28;;
54384;SDS011;40284;52.878;5.998;2023-08-07T02:48:35;18.73;;;3.70;;
54384;SDS011;40284;52.878;5.998;2023-08-07T02:51:01;19.33;;;3.72;;
54384;SDS011;40284;52.878;5.998;2023-08-07T02:53:27;16.20;;;3.42;;
54384;SDS011;40284;52.878;5.998;2023-08-07T02:55:53;14.25;;;3.50;;
54384;SDS011;40284;52.878;5.998;2023-08-07T02:58:19;11.95;;;3.78;;
54384;SDS011;40284;52.878;5.998;2023-08-07T03:00:45;15.32;;;3.88;;
54384;SDS011;40284;52.878;5.998;2023-08-07T03:03:11;13.25;;;3.53;;
54384;SDS011;40284;52.878;5.998;2023-08-07T03:05:37;17.63;;;4.13;;
54384;SDS011;40284;52.878;5.998;2023-08-07T03:08:03;18.15;;;3.83;;
54384;SDS011;40284;52.878;5.998;2023-08-07T03:10:29;17.23;;;3.92;;
54384;SDS011;40284;52.878;5.998;2023-08-07T03:12:55;19.38;;;4.68;;
54384;SDS011;40284;52.878;5.998;2023-08-07T03:15:21;15.00;;;4.72;;
54384;SDS011;40284;52.878;5.998;2023-08-07T03:17:48;15.65;;;4.47;;
54384;SDS011;40284;52.878;5.998;2023-08-07T03:20:14;14.43;;;4.00;;
54384;SDS011;40284;52.878;5.998;2023-08-07T03:22:40;23.00;;;3.50;;
54384;SDS011;40284;52.878;5.998;2023-08-07T03:25:06;11.77;;;3.45;;
54384;SDS011;40284;52.878;5.998;2023-08-07T03:27:32;12.93;;;3.75;;
54384;SDS011;40284;52.878;5.998;2023-08-07T03:29:58;12.02;;;3.42;;
54384;SDS011;40284;52.878;5.998;2023-08-07T03:32:24;10.25;;;3.58;;
54384;SDS011;40284;52.878;5.998;2023-08-07T03:34:50;11.07;;;4.10;;
54384;SDS011;40284;52.878;5.998;2023-08-07T03:37:16;17.08;;;4.05;;
54384;SDS011;40284;52.878;5.998;2023-08-07T03:39:42;10.15;;;4.43;;
54384;SDS011;40284;52.878;5.998;2023-08-07T03:42:12;13.30;;;3.88;;
54384;SDS011;40284;52.878;5.998;2023-08-07T03:44:40;14.45;;;4.97;;
54384;SDS011;40284;52.878;5.998;2023-08-07T03:47:06;16.67;;;5.93;;
54384;SDS011;40284;52.878;5.998;2023-08-07T03:49:32;16.17;;;6.25;;
54384;SDS011;40284;52.878;5.998;2023-08-07T03:51:58;16.42;;;5.10;;
54384;SDS011;40284;52.878;5.998;2023-08-07T03:54:24;12.50;;;4.32;;
54384;SDS011;40284;52.878;5.998;2023-08-07T03:56:51;15.68;;;5.38;;
54384;SDS011;40284;52.878;5.998;2023-08-07T03:59:17;15.73;;;4.15;;
54384;SDS011;40284;52.878;5.998;2023-08-07T04:01:43;18.40;;;4.20;;
54384;SDS011;40284;52.878;5.998;2023-08-07T04:04:09;20.13;;;4.20;;
54384;SDS011;40284;52.878;5.998;2023-08-07T04:06:35;17.83;;;4.55;;
54384;SDS011;40284;52.878;5.998;2023-08-07T04:09:01;13.20;;;4.18;;
54384;SDS011;40284;52.878;5.998;2023-08-07T04:11:28;15.07;;;4.28;;
54384;SDS011;40284;52.878;5.998;2023-08-07T04:13:55;17.05;;;4.90;;
54384;SDS011;40284;52.878;5.998;2023-08-07T04:16:21;11.52;;;4.03;;
54384;SDS011;40284;52.878;5.998;2023-08-07T04:18:47;12.70;;;4.03;;
54384;SDS011;40284;52.878;5.998;2023-08-07T04:21:13;15.85;;;4.32;;
54384;SDS011;40284;52.878;5.998;2023-08-07T04:23:39;13.40;;;4.57;;
54384;SDS011;40284;52.878;5.998;2023-08-07T04:26:05;19.52;;;5.32;;
54384;SDS011;40284;52.878;5.998;2023-08-07T04:28:31;14.32;;;4.63;;
54384;SDS011;40284;52.878;5.998;2023-08-07T04:30:58;10.85;;;4.68;;
54384;SDS011;40284;52.878;5.998;2023-08-07T04:33:24;19.60;;;5.65;;
54384;SDS011;40284;52.878;5.998;2023-08-07T04:35:50;14.35;;;4.82;;
54384;SDS011;40284;52.878;5.998;2023-08-07T04:38:16;11.95;;;5.03;;
54384;SDS011;40284;52.878;5.998;2023-08-07T04:40:46;13.07;;;4.30;;
54384;SDS011;40284;52.878;5.998;2023-08-07T04:43:13;12.55;;;4.05;;
54384;SDS011;40284;52.878;5.998;2023-08-07T04:45:39;15.32;;;4.93;;
54384;SDS011;40284;52.878;5.998;2023-08-07T04:48:06;13.20;;;3.97;;
54384;SDS011;40284;52.878;5.998;2023-08-07T04:50:32;16.70;;;5.30;;
54384;SDS011;40284;52.878;5.998;2023-08-07T04:52:58;18.98;;;5.40;;
54384;SDS011;40284;52.878;5.998;2023-08-07T04:55:25;12.98;;;4.43;;
54384;SDS011;40284;52.878;5.998;2023-08-07T04:57:51;19.27;;;5.72;;
54384;SDS011;40284;52.878;5.998;2023-08-07T05:00:20;12.93;;;5.00;;
54384;SDS011;40284;52.878;5.998;2023-08-07T05:02:46;17.65;;;4.43;;
54384;SDS011;40284;52.878;5.998;2023-08-07T05:05:13;14.57;;;4.05;;
54384;SDS011;40284;52.878;5.998;2023-08-07T05:07:45;14.57;;;4.13;;
54384;SDS011;40284;52.878;5.998;2023-08-07T05:10:12;13.45;;;4.13;;
54384;SDS011;40284;52.878;5.998;2023-08-07T05:12:38;14.55;;;3.88;;
54384;SDS011;40284;52.878;5.998;2023-08-07T05:15:04;24.05;;;5.05;;
54384;SDS011;40284;52.878;5.998;2023-08-07T05:17:31;15.73;;;4.40;;
54384;SDS011;40284;52.878;5.998;2023-08-07T05:19:57;12.55;;;4.07;;
54384;SDS011;40284;52.878;5.998;2023-08-07T05:22:23;14.32;;;4.18;;
54384;SDS011;40284;52.878;5.998;2023-08-07T05:24:49;17.25;;;5.05;;
54384;SDS011;40284;52.878;5.998;2023-08-07T05:27:15;16.40;;;4.82;;
54384;SDS011;40284;52.878;5.998;2023-08-07T05:29:41;19.45;;;5.30;;
54384;SDS011;40284;52.878;5.998;2023-08-07T05:32:11;12.40;;;3.78;;
54384;SDS011;40284;52.878;5.998;2023-08-07T05:34:37;15.90;;;4.25;;
54384;SDS011;40284;52.878;5.998;2023-08-07T05:37:03;16.25;;;5.03;;
54384;SDS011;40284;52.878;5.998;2023-08-07T05:39:29;13.57;;;4.72;;
54384;SDS011;40284;52.878;5.998;2023-08-07T05:41:55;15.07;;;4.18;;
54384;SDS011;40284;52.878;5.998;2023-08-07T05:44:23;23.65;;;5.85;;
54384;SDS011;40284;52.878;5.998;2023-08-07T05:46:49;16.95;;;4.70;;
54384;SDS011;40284;52.878;5.998;2023-08-07T05:49:15;18.10;;;5.97;;
54384;SDS011;40284;52.878;5.998;2023-08-07T05:51:42;17.58;;;4.57;;
54384;SDS011;40284;52.878;5.998;2023-08-07T05:54:08;16.25;;;4.97;;
54384;SDS011;40284;52.878;5.998;2023-08-07T05:56:34;15.70;;;4.75;;
54384;SDS011;40284;52.878;5.998;2023-08-07T05:59:00;19.02;;;5.03;;
54384;SDS011;40284;52.878;5.998;2023-08-07T06:01:26;14.95;;;4.40;;
54384;SDS011;40284;52.878;5.998;2023-08-07T06:03:56;17.33;;;5.22;;
54384;SDS011;40284;52.878;5.998;2023-08-07T06:06:22;15.10;;;4.22;;
54384;SDS011;40284;52.878;5.998;2023-08-07T06:08:48;15.63;;;3.40;;
54384;SDS011;40284;52.878;5.998;2023-08-07T06:11:14;11.60;;;4.15;;
54384;SDS011;40284;52.878;5.998;2023-08-07T06:13:40;20.17;;;3.45;;
54384;SDS011;40284;52.878;5.998;2023-08-07T06:16:06;18.27;;;4.90;;
54384;SDS011;40284;52.878;5.998;2023-08-07T06:18:33;16.38;;;3.90;;
54384;SDS011;40284;52.878;5.998;2023-08-07T06:20:59;15.00;;;4.32;;
54384;SDS011;40284;52.878;5.998;2023-08-07T06:23:25;15.00;;;4.97;;
54384;SDS011;40284;52.878;5.998;2023-08-07T06:25:51;14.38;;;4.82;;
54384;SDS011;40284;52.878;5.998;2023-08-07T06:28:17;16.55;;;4.75;;
54384;SDS011;40284;52.878;5.998;2023-08-07T06:30:43;14.70;;;4.28;;
54384;SDS011;40284;52.878;5.998;2023-08-07T06:33:10;16.60;;;4.82;;
54384;SDS011;40284;52.878;5.998;2023-08-07T06:35:39;15.73;;;4.40;;
54384;SDS011;40284;52.878;5.998;2023-08-07T06:38:07;20.05;;;4.25;;
54384;SDS011;40284;52.878;5.998;2023-08-07T06:40:37;26.77;;;4.53;;
54384;SDS011;40284;52.878;5.998;2023-08-07T06:43:03;17.48;;;5.60;;
54384;SDS011;40284;52.878;5.998;2023-08-07T06:45:29;15.30;;;4.28;;
54384;SDS011;40284;52.878;5.998;2023-08-07T06:47:55;12.18;;;4.40;;
54384;SDS011;40284;52.878;5.998;2023-08-07T06:50:21;10.50;;;2.92;;
54384;SDS011;40284;52.878;5.998;2023-08-07T06:52:47;7.82;;;2.50;;
54384;SDS011;40284;52.878;5.998;2023-08-07T06:55:13;8.20;;;2.72;;
54384;SDS011;40284;52.878;5.998;2023-08-07T06:57:39;8.88;;;3.08;;
54384;SDS011;40284;52.878;5.998;2023-08-07T07:00:05;9.20;;;2.72;;
54384;SDS011;40284;52.878;5.998;2023-08-07T07:02:32;10.23;;;2.95;;
54384;SDS011;40284;52.878;5.998;2023-08-07T07:04:58;9.93;;;2.67;;
54384;SDS011;40284;52.878;5.998;2023-08-07T07:07:24;10.13;;;3.08;;
54384;SDS011;40284;52.878;5.998;2023-08-07T07:09:50;12.68;;;3.00;;
54384;SDS011;40284;52.878;5.998;2023-08-07T07:12:16;11.32;;;3.55;;
54384;SDS011;40284;52.878;5.998;2023-08-07T07:14:42;10.75;;;3.10;;
54384;SDS011;40284;52.878;5.998;2023-08-07T07:17:08;12.57;;;3.47;;
54384;SDS011;40284;52.878;5.998;2023-08-07T07:19:34;10.23;;;3.22;;
54384;SDS011;40284;52.878;5.998;2023-08-07T07:22:00;11.20;;;3.75;;
54384;SDS011;40284;52.878;5.998;2023-08-07T07:24:26;16.17;;;3.63;;
54384;SDS011;40284;52.878;5.998;2023-08-07T07:26:52;11.20;;;3.60;;
54384;SDS011;40284;52.878;5.998;2023-08-07T07:29:19;24.98;;;4.45;;
54384;SDS011;40284;52.878;5.998;2023-08-07T07:31:45;12.32;;;3.65;;
54384;SDS011;40284;52.878;5.998;2023-08-07T07:34:12;12.18;;;3.10;;
54384;SDS011;40284;52.878;5.998;2023-08-07T07:36:38;6.72;;;3.33;;
54384;SDS011;40284;52.878;5.998;2023-08-07T07:39:04;11.82;;;3.47;;
54384;SDS011;40284;52.878;5.998;2023-08-07T07:41:30;14.00;;;3.10;;
54384;SDS011;40284;52.878;5.998;2023-08-07T07:43:56;6.80;;;3.08;;
54384;SDS011;40284;52.878;5.998;2023-08-07T07:46:22;16.08;;;3.42;;
54384;SDS011;40284;52.878;5.998;2023-08-07T07:48:49;8.55;;;3.03;;
54384;SDS011;40284;52.878;5.998;2023-08-07T07:51:15;9.93;;;3.17;;
54384;SDS011;40284;52.878;5.998;2023-08-07T07:53:41;12.00;;;3.47;;
54384;SDS011;40284;52.878;5.998;2023-08-07T07:56:07;9.90;;;2.92;;
54384;SDS011;40284;52.878;5.998;2023-08-07T07:58:33;14.88;;;3.63;;
54384;SDS011;40284;52.878;5.998;2023-08-07T08:00:59;12.00;;;3.38;;
54384;SDS011;40284;52.878;5.998;2023-08-07T08:03:25;14.65;;;3.65;;
54384;SDS011;40284;52.878;5.998;2023-08-07T08:05:52;9.88;;;3.00;;
54384;SDS011;40284;52.878;5.998;2023-08-07T08:08:18;12.30;;;4.18;;
54384;SDS011;40284;52.878;5.998;2023-08-07T08:10:45;11.85;;;3.40;;
54384;SDS011;40284;52.878;5.998;2023-08-07T08:13:13;11.25;;;3.55;;
54384;SDS011;40284;52.878;5.998;2023-08-07T08:15:39;11.63;;;3.30;;
54384;SDS011;40284;52.878;5.998;2023-08-07T08:18:05;12.43;;;3.20;;
54384;SDS011;40284;52.878;5.998;2023-08-07T08:20:31;12.02;;;3.72;;
54384;SDS011;40284;52.878;5.998;2023-08-07T08:22:58;11.15;;;4.53;;
54384;SDS011;40284;52.878;5.998;2023-08-07T08:25:24;13.70;;;3.45;;
54384;SDS011;40284;52.878;5.998;2023-08-07T08:27:50;12.18;;;3.58;;
54384;SDS011;40284;52.878;5.998;2023-08-07T08:30:16;13.73;;;3.53;;
54384;SDS011;40284;52.878;5.998;2023-08-07T08:32:43;10.88;;;3.95;;
54384;SDS011;40284;52.878;5.998;2023-08-07T08:35:09;15.13;;;4.72;;
54384;SDS011;40284;52.878;5.998;2023-08-07T08:37:36;15.32;;;3.90;;
54384;SDS011;40284;52.878;5.998;2023-08-07T08:40:02;15.75;;;3.38;;
54384;SDS011;40284;52.878;5.998;2023-08-07T08:42:29;14.38;;;3.40;;
54384;SDS011;40284;52.878;5.998;2023-08-07T08:44:55;14.43;;;3.58;;
54384;SDS011;40284;52.878;5.998;2023-08-07T08:47:22;9.10;;;3.10;;
54384;SDS011;40284;52.878;5.998;2023-08-07T08:50:10;11.73;;;3.17;;
54384;SDS011;40284;52.878;5.998;2023-08-07T08:52:36;8.93;;;2.80;;
54384;SDS011;40284;52.878;5.998;2023-08-07T08:55:03;11.02;;;2.85;;
54384;SDS011;40284;52.878;5.998;2023-08-07T08:57:29;8.48;;;3.15;;
54384;SDS011;40284;52.878;5.998;2023-08-07T08:59:56;7.65;;;2.58;;
54384;SDS011;40284;52.878;5.998;2023-08-07T09:02:22;17.60;;;2.83;;
54384;SDS011;40284;52.878;5.998;2023-08-07T09:04:49;6.50;;;2.38;;
54384;SDS011;40284;52.878;5.998;2023-08-07T09:07:15;12.82;;;2.58;;
54384;SDS011;40284;52.878;5.998;2023-08-07T09:09:44;10.98;;;2.90;;
54384;SDS011;40284;52.878;5.998;2023-08-07T09:12:16;10.02;;;3.53;;
54384;SDS011;40284;52.878;5.998;2023-08-07T09:14:44;11.48;;;3.50;;
54384;SDS011;40284;52.878;5.998;2023-08-07T09:17:11;7.07;;;2.90;;
54384;SDS011;40284;52.878;5.998;2023-08-07T09:19:38;7.30;;;2.80;;
54384;SDS011;40284;52.878;5.998;2023-08-07T09:22:04;9.32;;;2.55;;
54384;SDS011;40284;52.878;5.998;2023-08-07T09:24:32;10.02;;;3.22;;
54384;SDS011;40284;52.878;5.998;2023-08-07T09:26:58;7.32;;;2.83;;
54384;SDS011;40284;52.878;5.998;2023-08-07T09:29:24;11.65;;;2.45;;
54384;SDS011;40284;52.878;5.998;2023-08-07T09:31:50;8.90;;;2.72;;
54384;SDS011;40284;52.878;5.998;2023-08-07T09:34:19;9.35;;;2.70;;
54384;SDS011;40284;52.878;5.998;2023-08-07T09:36:46;13.02;;;3.67;;
54384;SDS011;40284;52.878;5.998;2023-08-07T09:39:12;10.40;;;3.05;;
54384;SDS011;40284;52.878;5.998;2023-08-07T09:41:39;11.30;;;3.00;;
54384;SDS011;40284;52.878;5.998;2023-08-07T09:44:09;9.70;;;2.95;;
54384;SDS011;40284;52.878;5.998;2023-08-07T09:46:42;10.05;;;3.75;;
54384;SDS011;40284;52.878;5.998;2023-08-07T09:49:08;12.05;;;2.92;;
54384;SDS011;40284;52.878;5.998;2023-08-07T09:51:44;10.00;;;2.70;;
54384;SDS011;40284;52.878;5.998;2023-08-07T09:54:11;8.80;;;3.53;;
54384;SDS011;40284;52.878;5.998;2023-08-07T09:56:37;9.45;;;3.42;;
54384;SDS011;40284;52.878;5.998;2023-08-07T09:59:04;17.17;;;2.90;;
54384;SDS011;40284;52.878;5.998;2023-08-07T10:01:30;10.02;;;3.15;;
54384;SDS011;40284;52.878;5.998;2023-08-07T10:03:57;7.13;;;2.88;;
54384;SDS011;40284;52.878;5.998;2023-08-07T10:06:23;12.15;;;2.42;;
54384;SDS011;40284;52.878;5.998;2023-08-07T10:08:49;7.85;;;2.10;;
54384;SDS011;40284;52.878;5.998;2023-08-07T10:11:16;10.55;;;3.88;;
54384;SDS011;40284;52.878;5.998;2023-08-07T10:13:42;11.25;;;3.15;;
54384;SDS011;40284;52.878;5.998;2023-08-07T10:16:08;11.77;;;2.92;;
54384;SDS011;40284;52.878;5.998;2023-08-07T10:18:35;9.20;;;2.67;;
54384;SDS011;40284;52.878;5.998;2023-08-07T10:21:03;12.95;;;2.58;;
54384;SDS011;40284;52.878;5.998;2023-08-07T10:23:29;14.73;;;2.45;;
54384;SDS011;40284;52.878;5.998;2023-08-07T10:25:57;8.10;;;2.47;;
54384;SDS011;40284;52.878;5.998;2023-08-07T10:28:23;10.48;;;3.05;;
54384;SDS011;40284;52.878;5.998;2023-08-07T10:30:50;10.65;;;2.78;;
54384;SDS011;40284;52.878;5.998;2023-08-07T10:33:16;16.27;;;3.40;;
54384;SDS011;40284;52.878;5.998;2023-08-07T10:35:45;9.65;;;3.03;;
54384;SDS011;40284;52.878;5.998;2023-08-07T10:38:16;10.02;;;2.83;;
54384;SDS011;40284;52.878;5.998;2023-08-07T10:41:05;7.93;;;2.50;;
54384;SDS011;40284;52.878;5.998;2023-08-07T10:43:36;11.50;;;3.53;;
54384;SDS011;40284;52.878;5.998;2023-08-07T10:46:02;8.30;;;2.35;;
54384;SDS011;40284;52.878;5.998;2023-08-07T10:48:29;7.13;;;2.35;;
54384;SDS011;40284;52.878;5.998;2023-08-07T10:53:31;6.63;;;2.22;;
54384;SDS011;40284;52.878;5.998;2023-08-07T10:56:04;7.07;;;2.10;;
54384;SDS011;40284;52.878;5.998;2023-08-07T10:58:35;8.88;;;2.83;;
54384;SDS011;40284;52.878;5.998;2023-08-07T11:04:28;11.10;;;2.65;;
54384;SDS011;40284;52.878;5.998;2023-08-07T11:06:40;11.10;;;3.00;;
54384;SDS011;40284;52.878;5.998;2023-08-07T11:09:07;9.95;;;2.70;;
54384;SDS011;40284;52.878;5.998;2023-08-07T11:14:05;9.60;;;2.67;;
54384;SDS011;40284;52.878;5.998;2023-08-07T11:16:32;8.77;;;2.63;;
54384;SDS011;40284;52.878;5.998;2023-08-07T11:18:59;6.18;;;1.90;;
54384;SDS011;40284;52.878;5.998;2023-08-07T11:21:25;7.65;;;3.03;;
54384;SDS011;40284;52.878;5.998;2023-08-07T11:23:51;7.35;;;2.38;;
54384;SDS011;40284;52.878;5.998;2023-08-07T11:26:18;4.30;;;2.00;;
54384;SDS011;40284;52.878;5.998;2023-08-07T11:28:49;7.57;;;2.72;;
54384;SDS011;40284;52.878;5.998;2023-08-07T11:31:17;6.35;;;2.45;;
54384;SDS011;40284;52.878;5.998;2023-08-07T11:33:43;6.10;;;2.25;;
54384;SDS011;40284;52.878;5.998;2023-08-07T11:36:12;4.55;;;1.90;;
54384;SDS011;40284;52.878;5.998;2023-08-07T11:38:42;7.57;;;2.67;;
54384;SDS011;40284;52.878;5.998;2023-08-07T11:41:08;7.97;;;2.30;;
54384;SDS011;40284;52.878;5.998;2023-08-07T11:43:35;7.93;;;2.45;;
54384;SDS011;40284;52.878;5.998;2023-08-07T11:46:02;8.88;;;2.67;;
54384;SDS011;40284;52.878;5.998;2023-08-07T11:48:29;5.40;;;2.05;;
54384;SDS011;40284;52.878;5.998;2023-08-07T11:50:56;7.43;;;2.40;;
54384;SDS011;40284;52.878;5.998;2023-08-07T11:53:22;4.97;;;2.20;;
54384;SDS011;40284;52.878;5.998;2023-08-07T11:58:20;6.43;;;2.00;;
54384;SDS011;40284;52.878;5.998;2023-08-07T12:00:46;8.27;;;2.30;;
54384;SDS011;40284;52.878;5.998;2023-08-07T12:03:31;9.38;;;3.28;;
54384;SDS011;40284;52.878;5.998;2023-08-07T12:05:59;5.80;;;2.13;;
54384;SDS011;40284;52.878;5.998;2023-08-07T12:08:31;8.02;;;2.13;;
54384;SDS011;40284;52.878;5.998;2023-08-07T12:11:07;9.77;;;3.00;;
54384;SDS011;40284;52.878;5.998;2023-08-07T12:13:36;11.65;;;3.03;;
54384;SDS011;40284;52.878;5.998;2023-08-07T12:16:02;5.60;;;2.53;;
54384;SDS011;40284;52.878;5.998;2023-08-07T12:18:29;7.55;;;2.60;;
54384;SDS011;40284;52.878;5.998;2023-08-07T12:20:59;6.82;;;2.88;;
54384;SDS011;40284;52.878;5.998;2023-08-07T12:23:26;10.00;;;2.60;;
54384;SDS011;40284;52.878;5.998;2023-08-07T12:25:52;8.85;;;2.42;;
54384;SDS011;40284;52.878;5.998;2023-08-07T12:28:19;15.52;;;3.20;;
54384;SDS011;40284;52.878;5.998;2023-08-07T12:30:45;8.88;;;2.83;;
54384;SDS011;40284;52.878;5.998;2023-08-07T12:33:12;8.90;;;2.53;;
54384;SDS011;40284;52.878;5.998;2023-08-07T12:35:38;4.57;;;1.92;;
54384;SDS011;40284;52.878;5.998;2023-08-07T12:38:04;7.50;;;2.75;;
54384;SDS011;40284;52.878;5.998;2023-08-07T12:40:31;6.78;;;3.42;;
54384;SDS011;40284;52.878;5.998;2023-08-07T12:43:00;9.10;;;3.15;;
54384;SDS011;40284;52.878;5.998;2023-08-07T12:45:26;7.80;;;3.08;;
54384;SDS011;40284;52.878;5.998;2023-08-07T12:47:52;9.32;;;3.17;;
54384;SDS011;40284;52.878;5.998;2023-08-07T12:50:18;6.57;;;2.67;;
54384;SDS011;40284;52.878;5.998;2023-08-07T12:52:44;5.40;;;2.38;;
54384;SDS011;40284;52.878;5.998;2023-08-07T12:55:11;6.78;;;3.03;;
54384;SDS011;40284;52.878;5.998;2023-08-07T12:57:41;5.82;;;2.78;;
54384;SDS011;40284;52.878;5.998;2023-08-07T13:00:10;7.95;;;3.75;;
54384;SDS011;40284;52.878;5.998;2023-08-07T13:02:42;12.32;;;3.10;;
54384;SDS011;40284;52.878;5.998;2023-08-07T13:05:08;13.02;;;3.72;;
54384;SDS011;40284;52.878;5.998;2023-08-07T13:07:36;10.90;;;3.95;;
54384;SDS011;40284;52.878;5.998;2023-08-07T13:10:04;10.10;;;3.47;;
54384;SDS011;40284;52.878;5.998;2023-08-07T13:12:30;9.25;;;3.70;;
54384;SDS011;40284;52.878;5.998;2023-08-07T13:14:59;11.48;;;3.42;;
54384;SDS011;40284;52.878;5.998;2023-08-07T13:17:25;11.20;;;3.47;;
54384;SDS011;40284;52.878;5.998;2023-08-07T13:19:51;12.70;;;3.65;;
54384;SDS011;40284;52.878;5.998;2023-08-07T13:22:17;10.07;;;4.15;;
54384;SDS011;40284;52.878;5.998;2023-08-07T13:24:44;12.23;;;3.85;;
54384;SDS011;40284;52.878;5.998;2023-08-07T13:27:10;9.63;;;3.10;;
54384;SDS011;40284;52.878;5.998;2023-08-07T13:29:36;8.98;;;3.10;;
54384;SDS011;40284;52.878;5.998;2023-08-07T13:32:02;11.75;;;3.45;;
54384;SDS011;40284;52.878;5.998;2023-08-07T13:34:34;10.98;;;3.67;;
54384;SDS011;40284;52.878;5.998;2023-08-07T13:37:00;12.27;;;3.97;;
54384;SDS011;40284;52.878;5.998;2023-08-07T13:39:26;12.98;;;3.78;;
54384;SDS011;40284;52.878;5.998;2023-08-07T13:41:53;14.07;;;3.85;;
54384;SDS011;40284;52.878;5.998;2023-08-07T13:44:19;9.32;;;3.65;;
54384;SDS011;40284;52.878;5.998;2023-08-07T13:46:45;11.85;;;3.40;;
54384;SDS011;40284;52.878;5.998;2023-08-07T13:49:13;9.98;;;3.30;;
54384;SDS011;40284;52.878;5.998;2023-08-07T13:51:39;6.72;;;2.85;;
54384;SDS011;40284;52.878;5.998;2023-08-07T13:54:06;8.23;;;3.15;;
54384;SDS011;40284;52.878;5.998;2023-08-07T13:56:33;11.50;;;3.30;;
54384;SDS011;40284;52.878;5.998;2023-08-07T13:58:59;6.05;;;2.50;;
54384;SDS011;40284;52.878;5.998;2023-08-07T14:01:25;11.05;;;2.92;;
54384;SDS011;40284;52.878;5.998;2023-08-07T14:03:53;10.10;;;3.92;;
54384;SDS011;40284;52.878;5.998;2023-08-07T14:06:19;8.10;;;2.85;;
54384;SDS011;40284;52.878;5.998;2023-08-07T14:08:45;8.38;;;2.50;;
54384;SDS011;40284;52.878;5.998;2023-08-07T14:11:12;11.90;;;3.00;;
54384;SDS011;40284;52.878;5.998;2023-08-07T14:13:39;8.45;;;2.80;;
54384;SDS011;40284;52.878;5.998;2023-08-07T14:16:06;6.68;;;2.70;;
54384;SDS011;40284;52.878;5.998;2023-08-07T14:18:32;9.40;;;3.15;;
54384;SDS011;40284;52.878;5.998;2023-08-07T14:20:59;8.98;;;3.35;;
54384;SDS011;40284;52.878;5.998;2023-08-07T14:23:25;6.47;;;2.80;;
54384;SDS011;40284;52.878;5.998;2023-08-07T14:25:51;10.30;;;2.95;;
54384;SDS011;40284;52.878;5.998;2023-08-07T14:28:18;11.60;;;2.97;;
54384;SDS011;40284;52.878;5.998;2023-08-07T14:30:44;9.63;;;2.67;;
54384;SDS011;40284;52.878;5.998;2023-08-07T14:33:10;6.07;;;2.47;;
54384;SDS011;40284;52.878;5.998;2023-08-07T14:35:36;5.68;;;2.40;;
54384;SDS011;40284;52.878;5.998;2023-08-07T14:38:03;11.32;;;2.47;;
54384;SDS011;40284;52.878;5.998;2023-08-07T14:40:29;12.27;;;2.40;;
54384;SDS011;40284;52.878;5.998;2023-08-07T14:42:55;8.50;;;2.88;;
54384;SDS011;40284;52.878;5.998;2023-08-07T14:45:21;12.05;;;3.08;;
54384;SDS011;40284;52.878;5.998;2023-08-07T14:47:48;4.85;;;2.13;;
54384;SDS011;40284;52.878;5.998;2023-08-07T14:50:15;6.22;;;2.40;;